Weather at Ciampino–G. B. Pastine International Airport

Public forecast

Using degrees Celsius for public forecast. Weather courtesy of forecast.io.

Current aviation weather report (METAR) for Ciampino–G. B. Pastine International Airport

2024/06/14 14:50 (retrieved 18 minutes ago)

LIRA 141450Z 26010KT 230V290 CAVOK 27/09 Q1018

Aviation forecast (TAF) for Ciampino–G. B. Pastine International Airport

2024/06/14 12:22 (retrieved 3 hours ago)

TAF LIRA 141100Z 1412/1512 26010KT 9999 SCT040 BECMG 1417/1419 VRB05KT BECMG 1507/1510 21010KT